createdAt,value
2022-10-22T00:03:16.242Z,0.98
2022-10-22T00:08:20.089Z,0.65
2022-10-22T00:13:24.880Z,1.00
2022-10-22T00:18:28.174Z,1.00
2022-10-22T00:23:31.482Z,0.70
2022-10-22T00:28:36.157Z,0.80
2022-10-22T00:33:39.396Z,0.60
2022-10-22T00:38:42.754Z,0.63
2022-10-22T00:44:01.137Z,0.40
2022-10-22T00:49:05.727Z,0.40
2022-10-22T00:54:38.897Z,0.40
2022-10-22T00:59:43.690Z,0.40
2022-10-22T01:04:47.105Z,0.40
2022-10-22T01:10:03.377Z,0.82
2022-10-22T01:15:57.994Z,0.65
2022-10-22T01:21:30.099Z,0.65
2022-10-22T01:26:44.166Z,0.70
2022-10-22T01:31:59.622Z,0.60
2022-10-22T01:37:04.007Z,0.40
2022-10-22T01:42:07.678Z,1.08
2022-10-22T01:47:21.621Z,0.30
2022-10-22T01:52:32.457Z,0.32
2022-10-22T01:57:45.537Z,0.40
2022-10-22T02:02:59.502Z,0.65
2022-10-22T02:08:10.074Z,0.30
2022-10-22T02:13:22.720Z,0.30
2022-10-22T02:18:39.475Z,0.30
2022-10-22T02:23:43.253Z,0.40
2022-10-22T02:28:55.306Z,0.40
2022-10-22T02:34:09.006Z,0.30
2022-10-22T02:39:13.707Z,0.22
2022-10-22T02:44:22.059Z,0.30
2022-10-22T02:49:26.774Z,0.28
2022-10-22T02:54:29.941Z,0.50
2022-10-22T02:59:34.275Z,0.30
2022-10-22T03:04:38.849Z,0.35
2022-10-22T03:09:43.122Z,0.20
2022-10-22T03:14:46.415Z,0.40
2022-10-22T03:19:57.642Z,0.40
2022-10-22T03:25:04.384Z,0.35
2022-10-22T03:30:09.308Z,0.40
2022-10-22T03:35:14.090Z,0.20
2022-10-22T03:40:17.868Z,0.75
2022-10-22T03:45:21.288Z,0.40
2022-10-22T03:50:28.283Z,0.40
2022-10-22T03:55:31.490Z,0.38
2022-10-22T04:00:35.615Z,0.30
2022-10-22T04:05:40.338Z,0.50
2022-10-22T04:10:54.983Z,0.30
2022-10-22T04:16:07.356Z,0.40
2022-10-22T04:21:13.792Z,0.55
2022-10-22T04:26:19.180Z,0.30
2022-10-22T04:31:25.083Z,0.30
2022-10-22T04:36:30.575Z,0.52
2022-10-22T04:41:36.410Z,0.43
2022-10-22T04:46:39.576Z,0.50
2022-10-22T04:51:46.255Z,0.30
2022-10-22T04:56:49.531Z,0.40
2022-10-22T05:01:52.773Z,0.45
2022-10-22T05:06:57.914Z,0.20
2022-10-22T05:12:08.501Z,0.30
2022-10-22T05:17:11.853Z,0.32
2022-10-22T05:22:16.642Z,0.43
2022-10-22T05:32:23.422Z,0.68
2022-10-22T05:37:28.164Z,0.30
2022-10-22T05:42:33.243Z,0.30
2022-10-22T05:47:36.557Z,0.57
2022-10-22T05:52:41.341Z,0.43
2022-10-22T05:57:44.884Z,0.60
2022-10-22T06:02:51.743Z,0.20
2022-10-22T06:07:58.681Z,0.30
2022-10-22T06:13:03.405Z,0.38
2022-10-22T06:18:06.769Z,0.22
2022-10-22T06:23:11.352Z,0.28
2022-10-22T06:28:14.544Z,0.30
2022-10-22T06:33:17.798Z,0.47
2022-10-22T06:38:22.969Z,0.30
2022-10-22T06:43:26.341Z,0.30
2022-10-22T06:48:29.748Z,0.50
2022-10-22T06:53:35.112Z,0.30
2022-10-22T06:58:39.564Z,0.28
2022-10-22T07:03:43.801Z,0.75
2022-10-22T07:08:49.076Z,0.30
2022-10-22T07:13:54.797Z,0.85
2022-10-22T07:18:58.744Z,1.40
2022-10-22T07:24:03.478Z,0.90
2022-10-22T07:29:07.111Z,1.45
2022-10-22T07:34:10.944Z,0.88
2022-10-22T07:39:15.859Z,0.68
2022-10-22T07:44:19.158Z,0.43
2022-10-22T07:49:22.465Z,0.50
2022-10-22T07:54:27.175Z,0.40
2022-10-22T07:59:30.539Z,0.20
2022-10-22T08:04:33.811Z,0.22
2022-10-22T08:09:38.643Z,0.43
2022-10-22T08:14:42.233Z,0.35
2022-10-22T08:19:45.417Z,0.52
2022-10-22T08:24:50.706Z,0.50
2022-10-22T08:29:54.261Z,0.52
2022-10-22T08:34:57.599Z,0.63
2022-10-22T08:40:02.324Z,0.65
2022-10-22T08:45:13.995Z,0.40
2022-10-22T08:50:23.972Z,0.70
2022-10-22T08:55:32.683Z,0.75
2022-10-22T09:00:46.193Z,0.60
2022-10-22T09:05:57.450Z,0.50
2022-10-22T09:11:07.680Z,0.50
2022-10-22T09:16:18.593Z,0.80
2022-10-22T09:21:29.400Z,0.60
2022-10-22T09:26:38.021Z,0.55
2022-10-22T09:31:41.286Z,0.50
2022-10-22T09:36:44.577Z,0.60
2022-10-22T09:41:49.392Z,0.60
2022-10-22T09:46:54.032Z,0.50
2022-10-22T09:51:59.225Z,0.50
2022-10-22T09:57:13.193Z,0.82
2022-10-22T10:02:33.632Z,0.50
2022-10-22T10:07:42.490Z,0.50
2022-10-22T10:12:53.753Z,0.60
2022-10-22T10:18:07.059Z,0.88
2022-10-22T10:23:25.474Z,0.50
2022-10-22T10:28:42.887Z,0.32
2022-10-22T10:33:53.183Z,0.57
2022-10-22T10:39:01.304Z,0.50
2022-10-22T10:44:32.151Z,0.60
2022-10-22T10:49:42.377Z,0.50
2022-10-22T10:54:55.278Z,2.45
2022-10-22T11:00:13.094Z,0.55
2022-10-22T11:05:35.947Z,0.60
2022-10-22T11:10:47.127Z,0.50
2022-10-22T11:16:02.966Z,0.52
2022-10-22T11:21:15.555Z,0.43
2022-10-22T11:26:32.190Z,1.05
2022-10-22T11:31:37.501Z,0.50
2022-10-22T11:36:41.814Z,0.63
2022-10-22T11:41:46.927Z,0.45
2022-10-22T11:46:58.861Z,0.60
2022-10-22T11:52:24.423Z,0.75
2022-10-22T11:57:30.444Z,0.70
2022-10-22T12:02:43.231Z,0.50
2022-10-22T12:07:57.191Z,0.60
2022-10-22T12:13:11.199Z,0.40
2022-10-22T12:18:19.837Z,0.50
2022-10-22T12:23:30.851Z,0.47
2022-10-22T12:28:41.033Z,0.70
2022-10-22T12:33:46.868Z,0.60
2022-10-22T12:38:50.178Z,0.80
2022-10-22T12:44:04.439Z,0.43
2022-10-22T12:49:15.952Z,0.50
2022-10-22T12:54:26.600Z,0.50
2022-10-22T12:59:34.255Z,0.40
2022-10-22T13:04:39.785Z,0.68
2022-10-22T13:09:47.046Z,0.60
2022-10-22T13:14:50.429Z,0.70
2022-10-22T13:20:05.454Z,0.50
2022-10-22T13:25:23.572Z,0.60
2022-10-22T13:30:29.441Z,0.50
2022-10-22T13:35:39.809Z,0.63
2022-10-22T13:40:43.164Z,0.60
2022-10-22T13:45:48.040Z,0.55
2022-10-22T13:50:54.837Z,0.50
2022-10-22T13:55:59.338Z,0.38
2022-10-22T14:01:08.840Z,1.70
2022-10-22T14:06:15.785Z,0.60
2022-10-22T14:11:21.587Z,0.57
2022-10-22T14:16:27.886Z,0.47
2022-10-22T14:21:37.095Z,0.50
2022-10-22T14:26:41.386Z,0.70
2022-10-22T14:31:45.322Z,0.50
2022-10-22T14:47:46.975Z,0.65
2022-10-22T14:52:52.144Z,0.65
2022-10-22T14:57:55.815Z,0.35
2022-10-22T15:03:03.300Z,0.60
2022-10-22T15:08:10.288Z,0.38
2022-10-22T15:13:14.685Z,0.43
2022-10-22T15:18:18.123Z,0.50
2022-10-22T15:23:22.898Z,0.40
2022-10-22T15:28:27.443Z,0.52
2022-10-22T15:33:31.325Z,0.40
2022-10-22T15:38:36.066Z,0.40
2022-10-22T15:43:39.402Z,0.47
2022-10-22T15:48:43.000Z,0.60
2022-10-22T15:53:52.716Z,0.50
2022-10-22T15:58:57.754Z,1.45
2022-10-22T16:04:02.887Z,0.40
2022-10-22T16:09:10.002Z,0.43
2022-10-22T16:14:14.857Z,0.70
2022-10-22T16:19:20.354Z,0.30
2022-10-22T16:24:25.117Z,0.70
2022-10-22T16:29:28.421Z,0.20
2022-10-22T16:34:31.777Z,0.70
2022-10-22T16:39:36.443Z,0.40
2022-10-22T16:44:39.700Z,0.50
2022-10-22T16:49:44.566Z,0.60
2022-10-22T16:54:49.299Z,2.83
2022-10-22T16:59:52.611Z,0.70
2022-10-22T17:04:55.773Z,0.70
2022-10-22T17:10:06.121Z,0.70
2022-10-22T17:15:10.062Z,0.90
2022-10-22T17:20:13.455Z,0.90
2022-10-22T17:25:23.288Z,1.05
2022-10-22T17:30:28.423Z,1.00
2022-10-22T17:35:31.706Z,0.95
2022-10-22T17:40:37.930Z,1.05
2022-10-22T17:45:41.224Z,1.27
2022-10-22T17:50:48.213Z,1.13
2022-10-22T17:56:02.695Z,1.10
2022-10-22T18:01:06.439Z,0.98
2022-10-22T18:06:11.143Z,1.08
2022-10-22T18:11:19.389Z,1.20
2022-10-22T18:16:30.532Z,1.17
2022-10-22T18:21:33.764Z,1.10
2022-10-22T18:26:38.454Z,1.30
2022-10-22T18:31:41.849Z,1.02
2022-10-22T18:36:45.245Z,1.27
2022-10-22T18:41:49.890Z,1.15
2022-10-22T18:46:53.255Z,1.13
2022-10-22T18:51:56.475Z,1.20
2022-10-22T18:57:03.154Z,0.80
2022-10-22T19:02:06.724Z,0.80
2022-10-22T19:12:15.356Z,0.90
2022-10-22T19:17:18.886Z,0.90
2022-10-22T19:22:22.089Z,1.10
2022-10-22T19:32:53.885Z,1.05
2022-10-22T19:37:57.099Z,0.77
2022-10-22T19:43:01.873Z,1.15
2022-10-22T19:48:05.354Z,1.67
2022-10-22T19:53:08.675Z,1.40
2022-10-22T19:58:15.910Z,1.05
2022-10-22T20:03:20.106Z,1.52
2022-10-22T20:13:52.886Z,1.90
2022-10-22T20:18:56.947Z,1.40
2022-10-22T20:24:00.933Z,1.80
2022-10-22T20:29:05.842Z,1.70
2022-10-22T20:34:10.353Z,1.67
2022-10-22T20:39:16.848Z,1.65
2022-10-22T20:44:21.432Z,1.52
2022-10-22T20:49:26.144Z,1.60
2022-10-22T20:54:33.859Z,1.63
2022-10-22T20:59:38.487Z,1.60
2022-10-22T21:04:44.111Z,1.67
2022-10-22T21:09:49.543Z,1.90
2022-10-22T21:14:54.300Z,1.63
2022-10-22T21:19:57.563Z,1.88
2022-10-22T21:25:00.834Z,2.33
2022-10-22T21:30:05.987Z,2.00
2022-10-22T21:35:09.943Z,2.15
2022-10-22T21:40:13.965Z,2.05
2022-10-22T21:45:22.339Z,2.00
2022-10-22T21:50:25.819Z,2.30
2022-10-22T21:55:30.551Z,2.40
2022-10-22T22:00:36.154Z,1.95
2022-10-22T22:05:39.567Z,2.30
2022-10-22T22:10:42.898Z,1.83
2022-10-22T22:15:53.254Z,2.25
2022-10-22T22:21:00.444Z,1.80
2022-10-22T22:26:04.623Z,2.17
2022-10-22T22:31:16.120Z,3.13
2022-10-22T22:36:19.566Z,2.70
2022-10-22T22:41:23.088Z,2.88
2022-10-22T22:46:27.979Z,2.63
2022-10-22T22:51:31.732Z,2.58
2022-10-22T22:56:40.224Z,3.00
2022-10-22T23:01:52.315Z,2.97
2022-10-22T23:06:55.544Z,3.20
2022-10-22T23:12:00.242Z,2.80
2022-10-22T23:17:04.920Z,2.75
2022-10-22T23:22:14.480Z,2.72
2022-10-22T23:27:18.456Z,2.65
2022-10-22T23:32:23.694Z,2.85
2022-10-22T23:37:27.105Z,2.85
2022-10-22T23:42:32.217Z,2.65
2022-10-22T23:47:38.010Z,3.28
2022-10-22T23:52:41.489Z,3.55
2022-10-22T23:57:48.847Z,3.22
